sensor_id;sensor_type;location;lat;lon;timestamp;temperature;humidity
38458;DHT22;24239;48.058;10.486;2023-07-22T00:00:44;14.10;99.90
38458;DHT22;24239;48.058;10.486;2023-07-22T00:03:13;14.10;99.90
38458;DHT22;24239;48.058;10.486;2023-07-22T00:05:42;14.00;99.90
38458;DHT22;24239;48.058;10.486;2023-07-22T00:08:12;14.10;99.90
38458;DHT22;24239;48.058;10.486;2023-07-22T00:10:42;14.00;99.90
38458;DHT22;24239;48.058;10.486;2023-07-22T00:13:10;14.00;99.90
38458;DHT22;24239;48.058;10.486;2023-07-22T00:15:39;14.00;99.90
38458;DHT22;24239;48.058;10.486;2023-07-22T00:18:06;14.00;99.90
38458;DHT22;24239;48.058;10.486;2023-07-22T00:20:32;14.00;99.90
38458;DHT22;24239;48.058;10.486;2023-07-22T00:22:58;14.00;99.90
38458;DHT22;24239;48.058;10.486;2023-07-22T00:25:24;14.00;99.90
38458;DHT22;24239;48.058;10.486;2023-07-22T00:27:50;13.90;99.90
38458;DHT22;24239;48.058;10.486;2023-07-22T00:30:17;13.90;99.90
38458;DHT22;24239;48.058;10.486;2023-07-22T00:32:43;13.90;99.90
38458;DHT22;24239;48.058;10.486;2023-07-22T00:35:10;13.90;99.90
38458;DHT22;24239;48.058;10.486;2023-07-22T00:37:36;13.90;99.90
38458;DHT22;24239;48.058;10.486;2023-07-22T00:40:02;13.80;99.90
38458;DHT22;24239;48.058;10.486;2023-07-22T00:42:32;13.80;99.90
38458;DHT22;24239;48.058;10.486;2023-07-22T00:44:59;13.80;99.90
38458;DHT22;24239;48.058;10.486;2023-07-22T00:47:26;13.80;99.90
38458;DHT22;24239;48.058;10.486;2023-07-22T00:49:54;13.70;99.90
38458;DHT22;24239;48.058;10.486;2023-07-22T00:52:21;13.70;99.90
38458;DHT22;24239;48.058;10.486;2023-07-22T00:54:49;13.70;99.90
38458;DHT22;24239;48.058;10.486;2023-07-22T00:57:15;13.70;99.90
38458;DHT22;24239;48.058;10.486;2023-07-22T00:59:41;13.80;99.90
38458;DHT22;24239;48.058;10.486;2023-07-22T01:02:07;13.80;99.90
38458;DHT22;24239;48.058;10.486;2023-07-22T01:04:34;13.80;99.90
38458;DHT22;24239;48.058;10.486;2023-07-22T01:07:01;13.80;99.90
38458;DHT22;24239;48.058;10.486;2023-07-22T01:09:39;13.80;99.90
38458;DHT22;24239;48.058;10.486;2023-07-22T01:12:06;13.80;99.90
38458;DHT22;24239;48.058;10.486;2023-07-22T01:14:37;13.80;99.90
38458;DHT22;24239;48.058;10.486;2023-07-22T01:17:05;13.80;99.90
38458;DHT22;24239;48.058;10.486;2023-07-22T01:19:34;13.70;99.90
38458;DHT22;24239;48.058;10.486;2023-07-22T01:22:03;13.70;99.90
38458;DHT22;24239;48.058;10.486;2023-07-22T01:24:29;13.60;99.90
38458;DHT22;24239;48.058;10.486;2023-07-22T01:26:57;13.60;99.90
38458;DHT22;24239;48.058;10.486;2023-07-22T01:29:26;13.60;99.90
38458;DHT22;24239;48.058;10.486;2023-07-22T01:31:55;13.60;99.90
38458;DHT22;24239;48.058;10.486;2023-07-22T01:34:25;13.60;99.90
38458;DHT22;24239;48.058;10.486;2023-07-22T01:36:55;13.50;99.90
38458;DHT22;24239;48.058;10.486;2023-07-22T01:39:24;13.50;99.90
38458;DHT22;24239;48.058;10.486;2023-07-22T01:41:53;13.50;99.90
38458;DHT22;24239;48.058;10.486;2023-07-22T01:44:20;13.50;99.90
38458;DHT22;24239;48.058;10.486;2023-07-22T01:46:49;13.40;99.90
38458;DHT22;24239;48.058;10.486;2023-07-22T01:49:17;13.40;99.90
38458;DHT22;24239;48.058;10.486;2023-07-22T01:51:47;13.40;99.90
38458;DHT22;24239;48.058;10.486;2023-07-22T01:54:16;13.30;99.90
38458;DHT22;24239;48.058;10.486;2023-07-22T01:56:44;13.30;99.90
38458;DHT22;24239;48.058;10.486;2023-07-22T01:59:12;13.20;99.90
38458;DHT22;24239;48.058;10.486;2023-07-22T02:01:40;13.30;99.90
38458;DHT22;24239;48.058;10.486;2023-07-22T02:04:09;13.10;99.90
38458;DHT22;24239;48.058;10.486;2023-07-22T02:06:36;13.20;99.90
38458;DHT22;24239;48.058;10.486;2023-07-22T02:09:05;13.20;99.90
38458;DHT22;24239;48.058;10.486;2023-07-22T02:11:36;13.10;99.90
38458;DHT22;24239;48.058;10.486;2023-07-22T02:14:04;13.10;99.90
38458;DHT22;24239;48.058;10.486;2023-07-22T02:16:36;13.10;99.90
38458;DHT22;24239;48.058;10.486;2023-07-22T02:19:06;13.10;99.90
38458;DHT22;24239;48.058;10.486;2023-07-22T02:21:35;13.00;99.90
38458;DHT22;24239;48.058;10.486;2023-07-22T02:24:02;13.00;99.90
38458;DHT22;24239;48.058;10.486;2023-07-22T02:26:31;13.00;99.90
38458;DHT22;24239;48.058;10.486;2023-07-22T02:29:01;13.00;99.90
38458;DHT22;24239;48.058;10.486;2023-07-22T02:31:27;12.90;99.90
38458;DHT22;24239;48.058;10.486;2023-07-22T02:33:53;12.90;99.90
38458;DHT22;24239;48.058;10.486;2023-07-22T02:36:19;12.90;99.90
38458;DHT22;24239;48.058;10.486;2023-07-22T02:38:45;12.80;99.90
38458;DHT22;24239;48.058;10.486;2023-07-22T02:41:12;12.80;99.90
38458;DHT22;24239;48.058;10.486;2023-07-22T02:43:37;12.80;99.90
38458;DHT22;24239;48.058;10.486;2023-07-22T02:46:06;12.70;99.90
38458;DHT22;24239;48.058;10.486;2023-07-22T02:48:34;12.60;99.90
38458;DHT22;24239;48.058;10.486;2023-07-22T02:51:06;12.60;99.90
38458;DHT22;24239;48.058;10.486;2023-07-22T02:53:33;12.60;99.90
38458;DHT22;24239;48.058;10.486;2023-07-22T02:56:00;12.50;99.90
38458;DHT22;24239;48.058;10.486;2023-07-22T02:58:26;12.60;99.90
38458;DHT22;24239;48.058;10.486;2023-07-22T03:00:55;12.50;99.90
38458;DHT22;24239;48.058;10.486;2023-07-22T03:03:27;12.50;99.90
38458;DHT22;24239;48.058;10.486;2023-07-22T03:05:57;12.50;99.90
38458;DHT22;24239;48.058;10.486;2023-07-22T03:08:25;12.40;99.90
38458;DHT22;24239;48.058;10.486;2023-07-22T03:10:54;12.40;99.90
38458;DHT22;24239;48.058;10.486;2023-07-22T03:13:22;12.40;99.90
38458;DHT22;24239;48.058;10.486;2023-07-22T03:15:48;12.40;99.90
38458;DHT22;24239;48.058;10.486;2023-07-22T03:18:14;12.30;99.90
38458;DHT22;24239;48.058;10.486;2023-07-22T03:20:40;12.30;99.90
38458;DHT22;24239;48.058;10.486;2023-07-22T03:23:07;12.30;99.90
38458;DHT22;24239;48.058;10.486;2023-07-22T03:25:34;12.20;99.90
38458;DHT22;24239;48.058;10.486;2023-07-22T03:28:05;12.20;99.90
38458;DHT22;24239;48.058;10.486;2023-07-22T03:30:34;12.10;99.90
38458;DHT22;24239;48.058;10.486;2023-07-22T03:33:03;12.10;99.90
38458;DHT22;24239;48.058;10.486;2023-07-22T03:35:35;12.00;99.90
38458;DHT22;24239;48.058;10.486;2023-07-22T03:38:04;12.00;99.90
38458;DHT22;24239;48.058;10.486;2023-07-22T03:40:32;12.00;99.90
38458;DHT22;24239;48.058;10.486;2023-07-22T03:43:00;12.00;99.90
38458;DHT22;24239;48.058;10.486;2023-07-22T03:45:29;11.90;99.90
38458;DHT22;24239;48.058;10.486;2023-07-22T03:48:00;11.90;99.90
38458;DHT22;24239;48.058;10.486;2023-07-22T03:50:30;11.90;99.90
38458;DHT22;24239;48.058;10.486;2023-07-22T03:52:55;12.00;99.90
38458;DHT22;24239;48.058;10.486;2023-07-22T03:55:21;11.90;99.90
38458;DHT22;24239;48.058;10.486;2023-07-22T03:57:47;11.90;99.90
38458;DHT22;24239;48.058;10.486;2023-07-22T04:00:15;12.00;99.90
38458;DHT22;24239;48.058;10.486;2023-07-22T04:02:42;12.00;99.90
38458;DHT22;24239;48.058;10.486;2023-07-22T04:05:11;12.00;99.90
38458;DHT22;24239;48.058;10.486;2023-07-22T04:07:40;12.00;99.90
38458;DHT22;24239;48.058;10.486;2023-07-22T04:10:07;12.10;99.90
38458;DHT22;24239;48.058;10.486;2023-07-22T04:12:33;12.10;99.90
38458;DHT22;24239;48.058;10.486;2023-07-22T04:14:58;12.10;99.90
38458;DHT22;24239;48.058;10.486;2023-07-22T04:17:24;12.20;99.90
38458;DHT22;24239;48.058;10.486;2023-07-22T04:19:52;12.20;99.90
38458;DHT22;24239;48.058;10.486;2023-07-22T04:22:23;12.40;99.90
38458;DHT22;24239;48.058;10.486;2023-07-22T04:24:52;12.90;99.90
38458;DHT22;24239;48.058;10.486;2023-07-22T04:27:17;13.50;99.90
38458;DHT22;24239;48.058;10.486;2023-07-22T04:29:43;14.10;99.90
38458;DHT22;24239;48.058;10.486;2023-07-22T04:32:10;14.60;99.90
38458;DHT22;24239;48.058;10.486;2023-07-22T04:34:36;15.00;99.90
38458;DHT22;24239;48.058;10.486;2023-07-22T04:37:03;15.30;99.90
38458;DHT22;24239;48.058;10.486;2023-07-22T04:39:31;15.50;99.90
38458;DHT22;24239;48.058;10.486;2023-07-22T04:41:58;15.60;99.90
38458;DHT22;24239;48.058;10.486;2023-07-22T04:44:27;15.60;99.90
38458;DHT22;24239;48.058;10.486;2023-07-22T04:46:55;15.80;99.90
38458;DHT22;24239;48.058;10.486;2023-07-22T04:49:21;16.20;99.90
38458;DHT22;24239;48.058;10.486;2023-07-22T04:51:49;16.40;99.90
38458;DHT22;24239;48.058;10.486;2023-07-22T04:54:17;16.70;99.90
38458;DHT22;24239;48.058;10.486;2023-07-22T04:56:45;16.80;99.90
38458;DHT22;24239;48.058;10.486;2023-07-22T04:59:12;16.80;99.90
38458;DHT22;24239;48.058;10.486;2023-07-22T05:01:40;16.50;99.90
38458;DHT22;24239;48.058;10.486;2023-07-22T05:04:07;16.30;99.90
38458;DHT22;24239;48.058;10.486;2023-07-22T05:06:35;16.00;99.90
38458;DHT22;24239;48.058;10.486;2023-07-22T05:09:04;16.10;99.90
38458;DHT22;24239;48.058;10.486;2023-07-22T05:11:34;16.60;99.90
38458;DHT22;24239;48.058;10.486;2023-07-22T05:14:04;17.00;99.90
38458;DHT22;24239;48.058;10.486;2023-07-22T05:16:35;17.30;99.90
38458;DHT22;24239;48.058;10.486;2023-07-22T05:19:03;17.50;99.90
38458;DHT22;24239;48.058;10.486;2023-07-22T05:21:31;17.80;99.90
38458;DHT22;24239;48.058;10.486;2023-07-22T05:24:00;18.20;99.90
38458;DHT22;24239;48.058;10.486;2023-07-22T05:26:26;18.60;99.90
38458;DHT22;24239;48.058;10.486;2023-07-22T05:28:52;19.10;99.90
38458;DHT22;24239;48.058;10.486;2023-07-22T05:31:18;19.50;99.90
38458;DHT22;24239;48.058;10.486;2023-07-22T05:33:44;19.50;99.90
38458;DHT22;24239;48.058;10.486;2023-07-22T05:36:10;19.60;99.90
38458;DHT22;24239;48.058;10.486;2023-07-22T05:38:36;19.60;99.90
38458;DHT22;24239;48.058;10.486;2023-07-22T05:41:01;19.30;99.90
38458;DHT22;24239;48.058;10.486;2023-07-22T05:43:27;19.20;99.90
38458;DHT22;24239;48.058;10.486;2023-07-22T05:45:54;19.40;99.90
38458;DHT22;24239;48.058;10.486;2023-07-22T05:48:22;19.20;99.90
38458;DHT22;24239;48.058;10.486;2023-07-22T05:50:48;19.20;99.90
38458;DHT22;24239;48.058;10.486;2023-07-22T05:53:17;19.20;99.90
38458;DHT22;24239;48.058;10.486;2023-07-22T05:55:46;19.00;99.90
38458;DHT22;24239;48.058;10.486;2023-07-22T05:58:18;19.10;99.90
38458;DHT22;24239;48.058;10.486;2023-07-22T06:00:46;19.50;99.90
38458;DHT22;24239;48.058;10.486;2023-07-22T06:03:15;19.70;99.90
38458;DHT22;24239;48.058;10.486;2023-07-22T06:05:44;19.70;99.90
38458;DHT22;24239;48.058;10.486;2023-07-22T06:08:10;20.20;99.90
38458;DHT22;24239;48.058;10.486;2023-07-22T06:10:36;20.60;99.90
38458;DHT22;24239;48.058;10.486;2023-07-22T06:13:05;21.10;99.90
38458;DHT22;24239;48.058;10.486;2023-07-22T06:15:32;21.00;99.90
38458;DHT22;24239;48.058;10.486;2023-07-22T06:17:58;21.20;99.90
38458;DHT22;24239;48.058;10.486;2023-07-22T06:20:25;21.20;99.90
38458;DHT22;24239;48.058;10.486;2023-07-22T06:22:53;21.40;99.90
38458;DHT22;24239;48.058;10.486;2023-07-22T06:25:18;21.40;99.90
38458;DHT22;24239;48.058;10.486;2023-07-22T06:27:45;20.90;99.90
38458;DHT22;24239;48.058;10.486;2023-07-22T06:30:15;20.50;99.90
38458;DHT22;24239;48.058;10.486;2023-07-22T06:32:44;20.40;99.90
38458;DHT22;24239;48.058;10.486;2023-07-22T06:35:12;20.00;99.90
38458;DHT22;24239;48.058;10.486;2023-07-22T06:37:41;19.90;99.90
38458;DHT22;24239;48.058;10.486;2023-07-22T06:40:08;19.20;99.90
38458;DHT22;24239;48.058;10.486;2023-07-22T06:42:38;18.80;99.90
38458;DHT22;24239;48.058;10.486;2023-07-22T06:45:05;18.50;99.90
38458;DHT22;24239;48.058;10.486;2023-07-22T06:47:31;18.30;99.90
38458;DHT22;24239;48.058;10.486;2023-07-22T06:49:58;18.00;99.90
38458;DHT22;24239;48.058;10.486;2023-07-22T06:52:25;17.90;99.90
38458;DHT22;24239;48.058;10.486;2023-07-22T06:54:54;17.80;99.90
38458;DHT22;24239;48.058;10.486;2023-07-22T06:57:26;17.70;99.90
38458;DHT22;24239;48.058;10.486;2023-07-22T06:59:55;17.70;99.90
38458;DHT22;24239;48.058;10.486;2023-07-22T07:02:21;17.60;99.90
38458;DHT22;24239;48.058;10.486;2023-07-22T07:04:50;17.50;99.90
38458;DHT22;24239;48.058;10.486;2023-07-22T07:07:16;17.50;99.90
38458;DHT22;24239;48.058;10.486;2023-07-22T07:09:42;17.50;99.90
38458;DHT22;24239;48.058;10.486;2023-07-22T07:12:11;17.60;99.90
38458;DHT22;24239;48.058;10.486;2023-07-22T07:14:38;17.50;99.90
38458;DHT22;24239;48.058;10.486;2023-07-22T07:17:07;17.50;99.90
38458;DHT22;24239;48.058;10.486;2023-07-22T07:19:38;17.50;99.90
38458;DHT22;24239;48.058;10.486;2023-07-22T07:22:03;17.50;99.90
38458;DHT22;24239;48.058;10.486;2023-07-22T07:24:29;17.60;99.90
38458;DHT22;24239;48.058;10.486;2023-07-22T07:26:55;17.70;99.90
38458;DHT22;24239;48.058;10.486;2023-07-22T07:29:25;17.60;99.90
38458;DHT22;24239;48.058;10.486;2023-07-22T07:31:53;17.70;99.90
38458;DHT22;24239;48.058;10.486;2023-07-22T07:34:21;17.70;99.90
38458;DHT22;24239;48.058;10.486;2023-07-22T07:36:49;17.70;99.90
38458;DHT22;24239;48.058;10.486;2023-07-22T07:39:19;17.80;99.90
38458;DHT22;24239;48.058;10.486;2023-07-22T07:41:48;17.70;99.90
38458;DHT22;24239;48.058;10.486;2023-07-22T07:44:18;17.70;99.90
38458;DHT22;24239;48.058;10.486;2023-07-22T07:46:49;17.80;99.90
38458;DHT22;24239;48.058;10.486;2023-07-22T07:49:18;17.70;99.90
38458;DHT22;24239;48.058;10.486;2023-07-22T07:51:48;17.70;99.90
38458;DHT22;24239;48.058;10.486;2023-07-22T07:54:16;17.80;99.90
38458;DHT22;24239;48.058;10.486;2023-07-22T07:56:44;17.90;99.90
38458;DHT22;24239;48.058;10.486;2023-07-22T07:59:13;17.90;99.90
38458;DHT22;24239;48.058;10.486;2023-07-22T08:01:41;17.90;99.90
38458;DHT22;24239;48.058;10.486;2023-07-22T08:04:09;18.10;99.90
38458;DHT22;24239;48.058;10.486;2023-07-22T08:06:37;18.10;99.90
38458;DHT22;24239;48.058;10.486;2023-07-22T08:09:05;18.20;99.90
38458;DHT22;24239;48.058;10.486;2023-07-22T08:11:34;18.30;99.90
38458;DHT22;24239;48.058;10.486;2023-07-22T08:14:05;18.30;99.90
38458;DHT22;24239;48.058;10.486;2023-07-22T08:16:35;18.50;99.90
38458;DHT22;24239;48.058;10.486;2023-07-22T08:19:03;18.60;99.90
38458;DHT22;24239;48.058;10.486;2023-07-22T08:21:33;18.70;99.90
38458;DHT22;24239;48.058;10.486;2023-07-22T08:24:03;18.70;99.90
38458;DHT22;24239;48.058;10.486;2023-07-22T08:26:33;18.70;99.90
38458;DHT22;24239;48.058;10.486;2023-07-22T08:29:00;18.70;99.90
38458;DHT22;24239;48.058;10.486;2023-07-22T08:31:30;18.70;99.90
38458;DHT22;24239;48.058;10.486;2023-07-22T08:33:56;18.70;99.90
38458;DHT22;24239;48.058;10.486;2023-07-22T08:36:22;18.70;99.90
38458;DHT22;24239;48.058;10.486;2023-07-22T08:38:48;18.70;99.90
38458;DHT22;24239;48.058;10.486;2023-07-22T08:41:14;18.80;99.90
38458;DHT22;24239;48.058;10.486;2023-07-22T08:43:41;18.80;99.90
38458;DHT22;24239;48.058;10.486;2023-07-22T08:46:10;18.80;99.90
38458;DHT22;24239;48.058;10.486;2023-07-22T08:48:41;18.80;99.90
38458;DHT22;24239;48.058;10.486;2023-07-22T08:51:18;18.90;99.90
38458;DHT22;24239;48.058;10.486;2023-07-22T08:53:48;19.00;99.90
38458;DHT22;24239;48.058;10.486;2023-07-22T08:56:19;19.10;99.90
38458;DHT22;24239;48.058;10.486;2023-07-22T08:58:49;19.20;99.90
38458;DHT22;24239;48.058;10.486;2023-07-22T09:01:22;19.20;99.90
38458;DHT22;24239;48.058;10.486;2023-07-22T09:03:54;19.40;99.90
38458;DHT22;24239;48.058;10.486;2023-07-22T09:06:26;19.40;99.90
38458;DHT22;24239;48.058;10.486;2023-07-22T09:08:56;19.40;99.90
38458;DHT22;24239;48.058;10.486;2023-07-22T09:11:24;19.40;99.90
38458;DHT22;24239;48.058;10.486;2023-07-22T09:13:54;19.40;99.90
38458;DHT22;24239;48.058;10.486;2023-07-22T09:16:23;19.60;99.90
38458;DHT22;24239;48.058;10.486;2023-07-22T09:18:57;19.60;99.90
38458;DHT22;24239;48.058;10.486;2023-07-22T09:21:28;19.70;99.90
38458;DHT22;24239;48.058;10.486;2023-07-22T09:23:57;19.90;99.90
38458;DHT22;24239;48.058;10.486;2023-07-22T09:26:26;20.00;99.90
38458;DHT22;24239;48.058;10.486;2023-07-22T09:28:56;20.30;99.90
38458;DHT22;24239;48.058;10.486;2023-07-22T09:31:27;20.60;99.90
38458;DHT22;24239;48.058;10.486;2023-07-22T09:34:09;20.80;99.90
38458;DHT22;24239;48.058;10.486;2023-07-22T09:36:53;20.80;99.90
38458;DHT22;24239;48.058;10.486;2023-07-22T09:39:19;20.60;99.90
38458;DHT22;24239;48.058;10.486;2023-07-22T09:41:44;20.80;99.90
38458;DHT22;24239;48.058;10.486;2023-07-22T09:44:11;20.90;99.90
38458;DHT22;24239;48.058;10.486;2023-07-22T09:46:40;20.90;99.90
38458;DHT22;24239;48.058;10.486;2023-07-22T09:49:09;21.20;99.90
38458;DHT22;24239;48.058;10.486;2023-07-22T09:51:36;21.20;99.50
38458;DHT22;24239;48.058;10.486;2023-07-22T09:54:04;21.30;99.90
38458;DHT22;24239;48.058;10.486;2023-07-22T09:56:31;21.30;99.90
38458;DHT22;24239;48.058;10.486;2023-07-22T09:59:04;21.20;99.90
38458;DHT22;24239;48.058;10.486;2023-07-22T10:01:32;21.30;99.90
38458;DHT22;24239;48.058;10.486;2023-07-22T10:03:59;21.20;99.90
38458;DHT22;24239;48.058;10.486;2023-07-22T10:06:27;21.40;99.90
38458;DHT22;24239;48.058;10.486;2023-07-22T10:09:02;21.40;99.30
38458;DHT22;24239;48.058;10.486;2023-07-22T10:11:35;21.50;99.70
38458;DHT22;24239;48.058;10.486;2023-07-22T10:14:05;21.50;99.00
38458;DHT22;24239;48.058;10.486;2023-07-22T10:16:34;21.70;99.70
38458;DHT22;24239;48.058;10.486;2023-07-22T10:19:04;21.80;97.80
38458;DHT22;24239;48.058;10.486;2023-07-22T10:21:31;22.00;99.10
38458;DHT22;24239;48.058;10.486;2023-07-22T10:24:00;22.20;97.30
38458;DHT22;24239;48.058;10.486;2023-07-22T10:26:30;22.10;98.10
38458;DHT22;24239;48.058;10.486;2023-07-22T10:28:58;22.00;97.00
38458;DHT22;24239;48.058;10.486;2023-07-22T10:31:24;22.10;98.80
38458;DHT22;24239;48.058;10.486;2023-07-22T10:33:54;22.00;97.20
38458;DHT22;24239;48.058;10.486;2023-07-22T10:36:29;21.90;98.30
38458;DHT22;24239;48.058;10.486;2023-07-22T10:39:00;21.90;97.60
38458;DHT22;24239;48.058;10.486;2023-07-22T10:41:29;21.60;97.30
38458;DHT22;24239;48.058;10.486;2023-07-22T10:43:57;21.30;97.70
38458;DHT22;24239;48.058;10.486;2023-07-22T10:46:33;21.30;98.40
38458;DHT22;24239;48.058;10.486;2023-07-22T10:49:16;21.10;97.90
38458;DHT22;24239;48.058;10.486;2023-07-22T10:51:48;20.80;97.70
38458;DHT22;24239;48.058;10.486;2023-07-22T10:54:15;20.80;97.90
38458;DHT22;24239;48.058;10.486;2023-07-22T10:56:57;20.80;97.90
38458;DHT22;24239;48.058;10.486;2023-07-22T10:59:28;20.80;98.10
38458;DHT22;24239;48.058;10.486;2023-07-22T11:01:53;20.80;99.30
38458;DHT22;24239;48.058;10.486;2023-07-22T11:04:26;20.90;99.50
38458;DHT22;24239;48.058;10.486;2023-07-22T11:07:05;21.00;99.00
38458;DHT22;24239;48.058;10.486;2023-07-22T11:09:35;21.20;98.50
38458;DHT22;24239;48.058;10.486;2023-07-22T11:14:39;21.30;97.00
38458;DHT22;24239;48.058;10.486;2023-07-22T11:17:09;21.40;97.50
38458;DHT22;24239;48.058;10.486;2023-07-22T11:19:36;21.50;97.80
38458;DHT22;24239;48.058;10.486;2023-07-22T11:22:06;21.60;98.10
38458;DHT22;24239;48.058;10.486;2023-07-22T11:24:34;21.70;98.10
38458;DHT22;24239;48.058;10.486;2023-07-22T11:27:03;21.90;95.60
38458;DHT22;24239;48.058;10.486;2023-07-22T11:29:33;21.90;95.40
38458;DHT22;24239;48.058;10.486;2023-07-22T11:32:03;22.00;95.60
38458;DHT22;24239;48.058;10.486;2023-07-22T11:34:32;22.10;94.10
38458;DHT22;24239;48.058;10.486;2023-07-22T11:36:58;22.00;94.10
38458;DHT22;24239;48.058;10.486;2023-07-22T11:39:27;21.90;93.20
38458;DHT22;24239;48.058;10.486;2023-07-22T11:42:01;21.80;93.60
38458;DHT22;24239;48.058;10.486;2023-07-22T11:44:31;21.80;93.90
38458;DHT22;24239;48.058;10.486;2023-07-22T11:49:36;21.90;95.00
38458;DHT22;24239;48.058;10.486;2023-07-22T11:52:04;22.00;95.20
38458;DHT22;24239;48.058;10.486;2023-07-22T11:54:33;22.10;95.10
38458;DHT22;24239;48.058;10.486;2023-07-22T11:57:20;22.20;93.90
38458;DHT22;24239;48.058;10.486;2023-07-22T11:59:48;22.10;93.90
38458;DHT22;24239;48.058;10.486;2023-07-22T12:02:18;22.10;93.50
38458;DHT22;24239;48.058;10.486;2023-07-22T12:07:35;22.30;94.70
38458;DHT22;24239;48.058;10.486;2023-07-22T12:10:04;22.30;93.80
38458;DHT22;24239;48.058;10.486;2023-07-22T12:12:38;22.40;93.90
38458;DHT22;24239;48.058;10.486;2023-07-22T12:15:08;22.60;94.70
38458;DHT22;24239;48.058;10.486;2023-07-22T12:17:58;22.60;94.00
38458;DHT22;24239;48.058;10.486;2023-07-22T12:23:13;22.60;92.90
38458;DHT22;24239;48.058;10.486;2023-07-22T12:25:42;22.70;92.80
38458;DHT22;24239;48.058;10.486;2023-07-22T12:28:12;22.70;93.20
38458;DHT22;24239;48.058;10.486;2023-07-22T12:30:40;22.70;93.40
38458;DHT22;24239;48.058;10.486;2023-07-22T12:33:09;22.90;93.30
38458;DHT22;24239;48.058;10.486;2023-07-22T12:35:39;22.90;92.80
38458;DHT22;24239;48.058;10.486;2023-07-22T12:38:07;22.90;92.90
38458;DHT22;24239;48.058;10.486;2023-07-22T12:40:36;22.80;92.20
38458;DHT22;24239;48.058;10.486;2023-07-22T12:43:03;22.80;92.30
38458;DHT22;24239;48.058;10.486;2023-07-22T12:45:31;22.70;92.30
38458;DHT22;24239;48.058;10.486;2023-07-22T12:48:00;22.80;92.50
38458;DHT22;24239;48.058;10.486;2023-07-22T12:50:29;23.00;92.30
38458;DHT22;24239;48.058;10.486;2023-07-22T12:52:59;23.20;92.90
38458;DHT22;24239;48.058;10.486;2023-07-22T12:55:27;23.40;93.30
38458;DHT22;24239;48.058;10.486;2023-07-22T12:57:56;23.50;91.00
38458;DHT22;24239;48.058;10.486;2023-07-22T13:00:27;23.70;91.60
38458;DHT22;24239;48.058;10.486;2023-07-22T13:02:53;23.70;91.10
38458;DHT22;24239;48.058;10.486;2023-07-22T13:05:23;23.90;91.60
38458;DHT22;24239;48.058;10.486;2023-07-22T13:07:52;23.90;90.60
38458;DHT22;24239;48.058;10.486;2023-07-22T13:10:20;23.90;91.70
38458;DHT22;24239;48.058;10.486;2023-07-22T13:12:50;23.90;91.10
38458;DHT22;24239;48.058;10.486;2023-07-22T13:15:17;23.90;90.40
38458;DHT22;24239;48.058;10.486;2023-07-22T13:17:46;23.90;90.60
38458;DHT22;24239;48.058;10.486;2023-07-22T13:20:16;23.90;89.60
38458;DHT22;24239;48.058;10.486;2023-07-22T13:22:43;23.90;90.30
38458;DHT22;24239;48.058;10.486;2023-07-22T13:25:13;24.00;90.30
38458;DHT22;24239;48.058;10.486;2023-07-22T13:27:42;24.10;91.20
38458;DHT22;24239;48.058;10.486;2023-07-22T13:30:08;24.10;90.60
38458;DHT22;24239;48.058;10.486;2023-07-22T13:32:36;24.10;90.10
38458;DHT22;24239;48.058;10.486;2023-07-22T13:35:04;24.10;90.60
38458;DHT22;24239;48.058;10.486;2023-07-22T13:37:32;24.30;90.20
38458;DHT22;24239;48.058;10.486;2023-07-22T13:40:02;24.40;91.30
38458;DHT22;24239;48.058;10.486;2023-07-22T13:42:38;24.60;90.20
38458;DHT22;24239;48.058;10.486;2023-07-22T13:45:06;24.70;90.90
38458;DHT22;24239;48.058;10.486;2023-07-22T13:47:37;24.80;88.20
38458;DHT22;24239;48.058;10.486;2023-07-22T13:50:07;24.90;89.10
38458;DHT22;24239;48.058;10.486;2023-07-22T13:52:37;24.90;89.00
38458;DHT22;24239;48.058;10.486;2023-07-22T13:55:04;24.90;88.40
38458;DHT22;24239;48.058;10.486;2023-07-22T13:57:32;24.90;87.40
38458;DHT22;24239;48.058;10.486;2023-07-22T13:59:59;24.70;88.70
38458;DHT22;24239;48.058;10.486;2023-07-22T14:02:25;24.70;90.20
38458;DHT22;24239;48.058;10.486;2023-07-22T14:04:51;24.70;89.20
38458;DHT22;24239;48.058;10.486;2023-07-22T14:07:22;24.80;88.00
38458;DHT22;24239;48.058;10.486;2023-07-22T14:09:52;24.80;86.10
38458;DHT22;24239;48.058;10.486;2023-07-22T14:12:20;24.90;87.70
38458;DHT22;24239;48.058;10.486;2023-07-22T14:14:45;25.00;88.40
38458;DHT22;24239;48.058;10.486;2023-07-22T14:17:14;25.00;88.00
38458;DHT22;24239;48.058;10.486;2023-07-22T14:19:39;24.90;88.00
38458;DHT22;24239;48.058;10.486;2023-07-22T14:22:05;25.00;87.90
38458;DHT22;24239;48.058;10.486;2023-07-22T14:24:35;25.00;87.60
38458;DHT22;24239;48.058;10.486;2023-07-22T14:27:02;25.00;88.90
38458;DHT22;24239;48.058;10.486;2023-07-22T14:29:32;24.90;84.10
38458;DHT22;24239;48.058;10.486;2023-07-22T14:32:03;24.90;85.10
38458;DHT22;24239;48.058;10.486;2023-07-22T14:34:32;24.90;84.40
38458;DHT22;24239;48.058;10.486;2023-07-22T14:37:02;24.80;85.60
38458;DHT22;24239;48.058;10.486;2023-07-22T14:39:32;24.70;85.20
38458;DHT22;24239;48.058;10.486;2023-07-22T14:42:03;24.70;86.60
38458;DHT22;24239;48.058;10.486;2023-07-22T14:44:29;24.80;90.00
38458;DHT22;24239;48.058;10.486;2023-07-22T14:46:59;24.80;86.80
38458;DHT22;24239;48.058;10.486;2023-07-22T14:49:29;24.90;86.00
38458;DHT22;24239;48.058;10.486;2023-07-22T14:51:59;24.80;85.40
38458;DHT22;24239;48.058;10.486;2023-07-22T14:54:27;24.70;87.80
38458;DHT22;24239;48.058;10.486;2023-07-22T14:56:55;24.90;86.50
38458;DHT22;24239;48.058;10.486;2023-07-22T14:59:23;24.90;84.60
38458;DHT22;24239;48.058;10.486;2023-07-22T15:01:52;25.10;86.90
38458;DHT22;24239;48.058;10.486;2023-07-22T15:04:21;25.20;85.10
38458;DHT22;24239;48.058;10.486;2023-07-22T15:06:51;25.30;85.50
38458;DHT22;24239;48.058;10.486;2023-07-22T15:09:21;25.30;83.10
38458;DHT22;24239;48.058;10.486;2023-07-22T15:11:51;25.20;83.80
38458;DHT22;24239;48.058;10.486;2023-07-22T15:14:19;25.20;85.50
38458;DHT22;24239;48.058;10.486;2023-07-22T15:16:49;25.40;86.10
38458;DHT22;24239;48.058;10.486;2023-07-22T15:19:19;25.60;84.60
38458;DHT22;24239;48.058;10.486;2023-07-22T15:21:49;25.80;84.30
38458;DHT22;24239;48.058;10.486;2023-07-22T15:24:18;25.80;82.90
38458;DHT22;24239;48.058;10.486;2023-07-22T15:26:46;25.80;82.10
38458;DHT22;24239;48.058;10.486;2023-07-22T15:29:14;25.80;82.00
38458;DHT22;24239;48.058;10.486;2023-07-22T15:31:43;25.90;84.70
38458;DHT22;24239;48.058;10.486;2023-07-22T15:34:10;26.00;85.00